sensor_id;sensor_type;location;lat;lon;timestamp;pressure;altitude;pressure_sealevel;temperature;humidity
80116;BME280;69423;47.608;19.366;2024-03-02T00:00:07;98328.03;;;8.26;100.00
80116;BME280;69423;47.608;19.366;2024-03-02T00:00:44;98325.19;;;8.27;100.00
80116;BME280;69423;47.608;19.366;2024-03-02T00:01:19;98334.16;;;8.26;100.00
80116;BME280;69423;47.608;19.366;2024-03-02T00:01:50;98330.88;;;8.24;100.00
80116;BME280;69423;47.608;19.366;2024-03-02T00:02:21;98332.53;;;8.25;100.00
80116;BME280;69423;47.608;19.366;2024-03-02T00:02:52;98326.56;;;8.23;100.00
80116;BME280;69423;47.608;19.366;2024-03-02T00:03:23;98327.22;;;8.25;100.00
80116;BME280;69423;47.608;19.366;2024-03-02T00:03:55;98327.22;;;8.25;100.00
80116;BME280;69423;47.608;19.366;2024-03-02T00:04:26;98330.88;;;8.24;100.00
80116;BME280;69423;47.608;19.366;2024-03-02T00:04:57;98324.75;;;8.24;100.00
80116;BME280;69423;47.608;19.366;2024-03-02T00:05:28;98328.84;;;8.26;100.00
80116;BME280;69423;47.608;19.366;2024-03-02T00:05:59;98326.75;;;8.22;100.00
80116;BME280;69423;47.608;19.366;2024-03-02T00:06:30;98323.91;;;8.23;100.00
80116;BME280;69423;47.608;19.366;2024-03-02T00:07:02;98331.69;;;8.25;100.00
80116;BME280;69423;47.608;19.366;2024-03-02T00:07:33;98333.69;;;8.23;100.00
80116;BME280;69423;47.608;19.366;2024-03-02T00:08:05;98333.25;;;8.19;100.00
80116;BME280;69423;47.608;19.366;2024-03-02T00:08:38;98330.88;;;8.24;100.00
80116;BME280;69423;47.608;19.366;2024-03-02T00:09:10;98327.56;;;8.22;100.00
80116;BME280;69423;47.608;19.366;2024-03-02T00:09:44;98334.72;;;8.22;100.00
80116;BME280;69423;47.608;19.366;2024-03-02T00:10:19;98332.78;;;8.16;100.00
80116;BME280;69423;47.608;19.366;2024-03-02T00:10:51;98339.75;;;8.17;100.00
80116;BME280;69423;47.608;19.366;2024-03-02T00:11:22;98329.16;;;8.17;100.00
80116;BME280;69423;47.608;19.366;2024-03-02T00:11:54;98329.97;;;8.17;100.00
80116;BME280;69423;47.608;19.366;2024-03-02T00:12:25;98321.19;;;8.17;100.00
80116;BME280;69423;47.608;19.366;2024-03-02T00:12:56;98334.47;;;8.17;100.00
80116;BME280;69423;47.608;19.366;2024-03-02T00:13:29;98328.28;;;8.16;100.00
80116;BME280;69423;47.608;19.366;2024-03-02T00:14:00;98327.66;;;8.14;100.00
80116;BME280;69423;47.608;19.366;2024-03-02T00:14:31;98325.00;;;8.14;100.00
80116;BME280;69423;47.608;19.366;2024-03-02T00:15:16;98330.31;;;8.14;100.00
80116;BME280;69423;47.608;19.366;2024-03-02T00:15:55;98323.84;;;8.17;100.00
80116;BME280;69423;47.608;19.366;2024-03-02T00:16:30;98321.34;;;8.15;100.00
80116;BME280;69423;47.608;19.366;2024-03-02T00:17:02;98326.03;;;8.13;100.00
80116;BME280;69423;47.608;19.366;2024-03-02T00:17:33;98323.38;;;8.13;100.00
80116;BME280;69423;47.608;19.366;2024-03-02T00:18:04;98313.56;;;8.14;100.00
80116;BME280;69423;47.608;19.366;2024-03-02T00:18:36;98323.63;;;8.18;100.00
80116;BME280;69423;47.608;19.366;2024-03-02T00:19:09;98321.81;;;8.19;100.00
80116;BME280;69423;47.608;19.366;2024-03-02T00:19:40;98318.97;;;8.20;100.00
80116;BME280;69423;47.608;19.366;2024-03-02T00:20:18;98320.78;;;8.20;100.00
80116;BME280;69423;47.608;19.366;2024-03-02T00:20:56;98320.34;;;8.16;100.00
80116;BME280;69423;47.608;19.366;2024-03-02T00:21:29;98319.34;;;8.17;100.00
80116;BME280;69423;47.608;19.366;2024-03-02T00:22:01;98320.16;;;8.18;100.00
80116;BME280;69423;47.608;19.366;2024-03-02T00:22:35;98321.81;;;8.19;100.00
80116;BME280;69423;47.608;19.366;2024-03-02T00:23:09;98318.69;;;8.15;100.00
80116;BME280;69423;47.608;19.366;2024-03-02T00:23:42;98320.16;;;8.18;100.00
80116;BME280;69423;47.608;19.366;2024-03-02T00:24:21;98320.34;;;8.16;100.00
80116;BME280;69423;47.608;19.366;2024-03-02T00:24:55;98323.63;;;8.18;100.00
80116;BME280;69423;47.608;19.366;2024-03-02T00:25:26;98321.81;;;8.19;100.00
80116;BME280;69423;47.608;19.366;2024-03-02T00:25:58;98326.94;;;8.20;100.00
80116;BME280;69423;47.608;19.366;2024-03-02T00:26:30;98324.28;;;8.20;100.00
80116;BME280;69423;47.608;19.366;2024-03-02T00:27:03;98323.44;;;8.20;100.00
80116;BME280;69423;47.608;19.366;2024-03-02T00:27:35;98322.25;;;8.22;100.00
80116;BME280;69423;47.608;19.366;2024-03-02T00:28:27;98321.91;;;8.25;100.00
80116;BME280;69423;47.608;19.366;2024-03-02T00:29:00;98320.25;;;8.24;100.00
80116;BME280;69423;47.608;19.366;2024-03-02T00:29:31;98327.41;;;8.24;100.00
80116;BME280;69423;47.608;19.366;2024-03-02T00:30:13;98319.97;;;8.19;100.00
80116;BME280;69423;47.608;19.366;2024-03-02T00:31:08;98320.34;;;8.16;100.00
80116;BME280;69423;47.608;19.366;2024-03-02T00:31:39;98326.09;;;8.20;100.00
80116;BME280;69423;47.608;19.366;2024-03-02T00:32:16;98320.72;;;8.13;100.00
80116;BME280;69423;47.608;19.366;2024-03-02T00:32:47;98330.31;;;8.14;100.00
80116;BME280;69423;47.608;19.366;2024-03-02T00:33:19;98327.66;;;8.14;100.00
80116;BME280;69423;47.608;19.366;2024-03-02T00:33:51;98331.81;;;8.17;100.00
80116;BME280;69423;47.608;19.366;2024-03-02T00:34:23;98321.34;;;8.15;100.00
80116;BME280;69423;47.608;19.366;2024-03-02T00:34:54;98326.28;;;8.18;100.00
80116;BME280;69423;47.608;19.366;2024-03-02T00:35:25;98323.44;;;8.20;100.00
80116;BME280;69423;47.608;19.366;2024-03-02T00:35:56;98329.97;;;8.17;100.00
80116;BME280;69423;47.608;19.366;2024-03-02T00:36:28;98333.25;;;8.19;100.00
80116;BME280;69423;47.608;19.366;2024-03-02T00:36:59;98335.28;;;8.17;100.00
80116;BME280;69423;47.608;19.366;2024-03-02T00:37:30;98336.91;;;8.18;100.00
80116;BME280;69423;47.608;19.366;2024-03-02T00:38:05;98329.16;;;8.17;100.00
80116;BME280;69423;47.608;19.366;2024-03-02T00:38:50;98336.47;;;8.15;100.00
80116;BME280;69423;47.608;19.366;2024-03-02T00:39:21;98334.63;;;8.15;100.00
80116;BME280;69423;47.608;19.366;2024-03-02T00:39:52;98338.56;;;8.19;100.00
80116;BME280;69423;47.608;19.366;2024-03-02T00:40:29;98327.47;;;8.16;100.00
80116;BME280;69423;47.608;19.366;2024-03-02T00:41:04;98328.75;;;8.20;100.00
80116;BME280;69423;47.608;19.366;2024-03-02T00:41:40;98327.47;;;8.16;100.00
80116;BME280;69423;47.608;19.366;2024-03-02T00:42:13;98330.31;;;8.14;100.00
80116;BME280;69423;47.608;19.366;2024-03-02T00:42:44;98330.94;;;8.16;100.00
80116;BME280;69423;47.608;19.366;2024-03-02T00:43:47;98326.03;;;8.13;100.00
80116;BME280;69423;47.608;19.366;2024-03-02T00:44:22;98338.00;;;8.09;100.00
80116;BME280;69423;47.608;19.366;2024-03-02T00:44:55;98337.00;;;8.10;100.00
80116;BME280;69423;47.608;19.366;2024-03-02T00:45:26;98332.69;;;8.09;100.00
80116;BME280;69423;47.608;19.366;2024-03-02T00:45:58;98332.69;;;8.09;100.00
80116;BME280;69423;47.608;19.366;2024-03-02T00:46:33;98335.72;;;8.06;100.00
80116;BME280;69423;47.608;19.366;2024-03-02T00:47:04;98340.84;;;8.07;100.00
80116;BME280;69423;47.608;19.366;2024-03-02T00:47:39;98335.34;;;8.09;100.00
80116;BME280;69423;47.608;19.366;2024-03-02T00:48:10;98330.59;;;8.04;100.00
80116;BME280;69423;47.608;19.366;2024-03-02T00:48:51;98331.13;;;8.00;100.00
80116;BME280;69423;47.608;19.366;2024-03-02T00:49:24;98323.53;;;7.97;100.00
80116;BME280;69423;47.608;19.366;2024-03-02T00:49:57;98332.78;;;8.01;100.00
80116;BME280;69423;47.608;19.366;2024-03-02T00:50:28;98329.31;;;8.00;100.00
80116;BME280;69423;47.608;19.366;2024-03-02T00:50:59;98327.66;;;7.99;100.00
80116;BME280;69423;47.608;19.366;2024-03-02T00:51:32;98327.81;;;7.98;100.00
80116;BME280;69423;47.608;19.366;2024-03-02T00:52:05;98324.09;;;7.92;100.00
80116;BME280;69423;47.608;19.366;2024-03-02T00:52:37;98315.28;;;7.91;100.00
80116;BME280;69423;47.608;19.366;2024-03-02T00:53:12;98327.19;;;7.96;100.00
80116;BME280;69423;47.608;19.366;2024-03-02T00:53:43;98322.72;;;7.96;100.00
80116;BME280;69423;47.608;19.366;2024-03-02T00:54:14;98323.53;;;7.97;100.00
80116;BME280;69423;47.608;19.366;2024-03-02T00:54:45;98324.34;;;7.97;100.00
80116;BME280;69423;47.608;19.366;2024-03-02T00:55:17;98321.53;;;7.99;100.00
80116;BME280;69423;47.608;19.366;2024-03-02T00:55:49;98315.19;;;8.00;100.00
80116;BME280;69423;47.608;19.366;2024-03-02T00:56:20;98321.16;;;8.02;100.00
80116;BME280;69423;47.608;19.366;2024-03-02T00:56:52;98322.16;;;8.01;100.00
80116;BME280;69423;47.608;19.366;2024-03-02T00:57:33;98312.53;;;8.00;100.00
80116;BME280;69423;47.608;19.366;2024-03-02T00:58:05;98310.72;;;8.00;100.00
80116;BME280;69423;47.608;19.366;2024-03-02T00:58:36;98312.53;;;8.00;100.00
80116;BME280;69423;47.608;19.366;2024-03-02T00:59:07;98307.88;;;8.02;100.00
80116;BME280;69423;47.608;19.366;2024-03-02T00:59:39;98307.44;;;7.98;100.00
80116;BME280;69423;47.608;19.366;2024-03-02T01:00:10;98304.78;;;7.98;100.00
80116;BME280;69423;47.608;19.366;2024-03-02T01:00:45;98307.88;;;8.02;100.00
80116;BME280;69423;47.608;19.366;2024-03-02T01:01:16;98308.50;;;8.04;100.00
80116;BME280;69423;47.608;19.366;2024-03-02T01:01:48;98300.38;;;8.05;100.00
80116;BME280;69423;47.608;19.366;2024-03-02T01:02:22;98304.88;;;8.05;100.00
80116;BME280;69423;47.608;19.366;2024-03-02T01:02:53;98306.50;;;8.06;100.00
80116;BME280;69423;47.608;19.366;2024-03-02T01:03:24;98307.88;;;8.02;100.00
80116;BME280;69423;47.608;19.366;2024-03-02T01:03:55;98303.19;;;8.04;100.00
80116;BME280;69423;47.608;19.366;2024-03-02T01:04:26;98301.19;;;8.06;100.00
80116;BME280;69423;47.608;19.366;2024-03-02T01:04:57;98299.56;;;8.05;100.00
80116;BME280;69423;47.608;19.366;2024-03-02T01:05:28;98304.88;;;8.05;100.00
80116;BME280;69423;47.608;19.366;2024-03-02T01:05:59;98306.50;;;8.06;100.00
80116;BME280;69423;47.608;19.366;2024-03-02T01:06:30;98303.66;;;8.07;100.00
80116;BME280;69423;47.608;19.366;2024-03-02T01:07:01;98302.84;;;8.07;100.00
80116;BME280;69423;47.608;19.366;2024-03-02T01:07:32;98299.09;;;8.01;100.00
80116;BME280;69423;47.608;19.366;2024-03-02T01:08:03;98296.25;;;8.03;100.00
80116;BME280;69423;47.608;19.366;2024-03-02T01:08:35;98298.91;;;8.03;100.00
80116;BME280;69423;47.608;19.366;2024-03-02T01:09:06;98298.91;;;8.03;100.00
80116;BME280;69423;47.608;19.366;2024-03-02T01:09:37;98298.91;;;8.03;100.00
80116;BME280;69423;47.608;19.366;2024-03-02T01:10:09;98300.75;;;8.02;100.00
80116;BME280;69423;47.608;19.366;2024-03-02T01:10:41;98287.84;;;7.99;100.00
80116;BME280;69423;47.608;19.366;2024-03-02T01:11:12;98297.47;;;8.00;100.00
80116;BME280;69423;47.608;19.366;2024-03-02T01:11:43;98289.28;;;8.02;100.00
80116;BME280;69423;47.608;19.366;2024-03-02T01:12:14;98289.66;;;7.99;100.00
80116;BME280;69423;47.608;19.366;2024-03-02T01:12:45;98295.63;;;8.01;100.00
80116;BME280;69423;47.608;19.366;2024-03-02T01:13:16;98287.09;;;8.05;100.00
80116;BME280;69423;47.608;19.366;2024-03-02T01:13:48;98293.44;;;8.04;100.00
80116;BME280;69423;47.608;19.366;2024-03-02T01:14:19;98290.78;;;8.04;100.00
80116;BME280;69423;47.608;19.366;2024-03-02T01:14:50;98288.94;;;8.05;100.00
80116;BME280;69423;47.608;19.366;2024-03-02T01:15:21;98291.59;;;8.05;100.00
80116;BME280;69423;47.608;19.366;2024-03-02T01:15:52;98297.53;;;8.07;100.00
80116;BME280;69423;47.608;19.366;2024-03-02T01:16:24;98292.25;;;8.07;100.00
80116;BME280;69423;47.608;19.366;2024-03-02T01:16:55;98282.81;;;8.04;100.00
80116;BME280;69423;47.608;19.366;2024-03-02T01:17:26;98283.63;;;8.05;100.00
80116;BME280;69423;47.608;19.366;2024-03-02T01:17:57;98290.94;;;8.03;100.00
80116;BME280;69423;47.608;19.366;2024-03-02T01:18:28;98293.59;;;8.03;100.00
80116;BME280;69423;47.608;19.366;2024-03-02T01:18:59;98290.66;;;7.98;100.00
80116;BME280;69423;47.608;19.366;2024-03-02T01:19:30;98289.19;;;7.95;100.00
80116;BME280;69423;47.608;19.366;2024-03-02T01:20:01;98296.34;;;7.95;100.00
80116;BME280;69423;47.608;19.366;2024-03-02T01:20:32;98291.38;;;7.91;100.00
80116;BME280;69423;47.608;19.366;2024-03-02T01:21:03;98295.72;;;7.93;100.00
80116;BME280;69423;47.608;19.366;2024-03-02T01:21:34;98289.19;;;7.95;100.00
80116;BME280;69423;47.608;19.366;2024-03-02T01:22:05;98294.34;;;7.97;100.00
80116;BME280;69423;47.608;19.366;2024-03-02T01:22:36;98288.72;;;7.91;100.00
80116;BME280;69423;47.608;19.366;2024-03-02T01:23:08;98292.25;;;7.92;100.00
80116;BME280;69423;47.608;19.366;2024-03-02T01:23:39;98281.16;;;7.88;100.00
80116;BME280;69423;47.608;19.366;2024-03-02T01:24:10;98291.59;;;7.90;100.00
80116;BME280;69423;47.608;19.366;2024-03-02T01:24:41;98290.41;;;7.93;100.00
80116;BME280;69423;47.608;19.366;2024-03-02T01:25:13;98292.25;;;7.92;100.00
80116;BME280;69423;47.608;19.366;2024-03-02T01:25:44;98288.38;;;7.95;100.00
80116;BME280;69423;47.608;19.366;2024-03-02T01:26:15;98290.03;;;7.96;100.00
80116;BME280;69423;47.608;19.366;2024-03-02T01:26:46;98290.03;;;7.96;100.00
80116;BME280;69423;47.608;19.366;2024-03-02T01:27:17;98280.25;;;7.96;100.00
80116;BME280;69423;47.608;19.366;2024-03-02T01:27:49;98283.53;;;7.98;100.00
80116;BME280;69423;47.608;19.366;2024-03-02T01:28:20;98286.38;;;7.97;100.00
80116;BME280;69423;47.608;19.366;2024-03-02T01:28:51;98296.63;;;8.00;100.00
80116;BME280;69423;47.608;19.366;2024-03-02T01:29:22;98292.59;;;8.04;100.00
80116;BME280;69423;47.608;19.366;2024-03-02T01:29:53;98286.47;;;8.03;100.00
80116;BME280;69423;47.608;19.366;2024-03-02T01:30:25;98293.44;;;8.04;100.00
80116;BME280;69423;47.608;19.366;2024-03-02T01:30:56;98290.78;;;8.04;100.00
80116;BME280;69423;47.608;19.366;2024-03-02T01:31:27;98297.25;;;8.02;100.00
80116;BME280;69423;47.608;19.366;2024-03-02T01:31:58;98293.31;;;7.98;100.00
80116;BME280;69423;47.608;19.366;2024-03-02T01:32:29;98289.03;;;7.97;100.00
80116;BME280;69423;47.608;19.366;2024-03-02T01:33:00;98293.31;;;7.98;100.00
80116;BME280;69423;47.608;19.366;2024-03-02T01:33:32;98294.34;;;7.97;100.00
80116;BME280;69423;47.608;19.366;2024-03-02T01:34:03;98294.50;;;7.95;100.00
80116;BME280;69423;47.608;19.366;2024-03-02T01:34:34;98294.69;;;7.94;100.00
80116;BME280;69423;47.608;19.366;2024-03-02T01:35:06;98297.72;;;7.90;100.00
80116;BME280;69423;47.608;19.366;2024-03-02T01:35:37;98296.91;;;7.90;100.00
80116;BME280;69423;47.608;19.366;2024-03-02T01:36:08;98294.25;;;7.90;100.00
80116;BME280;69423;47.608;19.366;2024-03-02T01:36:39;98292.41;;;7.90;100.00
80116;BME280;69423;47.608;19.366;2024-03-02T01:37:10;98298.72;;;7.89;100.00
80116;BME280;69423;47.608;19.366;2024-03-02T01:37:41;98295.06;;;7.90;100.00
80116;BME280;69423;47.608;19.366;2024-03-02T01:38:12;98304.03;;;7.89;100.00
80116;BME280;69423;47.608;19.366;2024-03-02T01:38:43;98296.06;;;7.89;100.00
80116;BME280;69423;47.608;19.366;2024-03-02T01:39:14;98296.25;;;7.88;100.00
80116;BME280;69423;47.608;19.366;2024-03-02T01:39:45;98297.91;;;7.89;100.00
80116;BME280;69423;47.608;19.366;2024-03-02T01:40:16;98298.09;;;7.87;100.00
80116;BME280;69423;47.608;19.366;2024-03-02T01:40:48;98296.44;;;7.86;100.00
80116;BME280;69423;47.608;19.366;2024-03-02T01:41:19;98306.06;;;7.87;100.00
80116;BME280;69423;47.608;19.366;2024-03-02T01:41:50;98284.19;;;7.85;100.00
80116;BME280;69423;47.608;19.366;2024-03-02T01:42:21;98297.47;;;7.85;100.00
80116;BME280;69423;47.608;19.366;2024-03-02T01:42:52;98293.13;;;7.84;100.00
80116;BME280;69423;47.608;19.366;2024-03-02T01:43:28;98293.50;;;7.81;100.00
80116;BME280;69423;47.608;19.366;2024-03-02T01:43:59;98292.31;;;7.84;100.00
80116;BME280;69423;47.608;19.366;2024-03-02T01:44:30;98290.66;;;7.83;100.00
80116;BME280;69423;47.608;19.366;2024-03-02T01:45:03;98295.97;;;7.83;100.00
80116;BME280;69423;47.608;19.366;2024-03-02T01:45:35;98288.22;;;7.81;100.00
80116;BME280;69423;47.608;19.366;2024-03-02T01:46:06;98293.50;;;7.81;100.00
80116;BME280;69423;47.608;19.366;2024-03-02T01:46:37;98291.69;;;7.82;100.00
80116;BME280;69423;47.608;19.366;2024-03-02T01:47:08;98289.84;;;7.82;100.00
80116;BME280;69423;47.608;19.366;2024-03-02T01:47:39;98290.00;;;7.81;100.00
80116;BME280;69423;47.608;19.366;2024-03-02T01:48:11;98293.50;;;7.81;100.00
80116;BME280;69423;47.608;19.366;2024-03-02T01:48:42;98288.22;;;7.81;100.00
80116;BME280;69423;47.608;19.366;2024-03-02T01:49:13;98288.66;;;7.85;100.00
80116;BME280;69423;47.608;19.366;2024-03-02T01:49:44;98291.13;;;7.86;100.00
80116;BME280;69423;47.608;19.366;2024-03-02T01:50:15;98287.81;;;7.84;100.00
80116;BME280;69423;47.608;19.366;2024-03-02T01:50:46;98289.84;;;7.82;100.00
80116;BME280;69423;47.608;19.366;2024-03-02T01:51:17;98294.34;;;7.82;100.00
80116;BME280;69423;47.608;19.366;2024-03-02T01:51:48;98289.03;;;7.82;100.00
80116;BME280;69423;47.608;19.366;2024-03-02T01:52:19;98300.44;;;7.82;100.00
80116;BME280;69423;47.608;19.366;2024-03-02T01:52:51;98294.34;;;7.82;100.00
80116;BME280;69423;47.608;19.366;2024-03-02T01:53:22;98294.88;;;7.77;100.00
80116;BME280;69423;47.608;19.366;2024-03-02T01:53:53;98296.03;;;7.75;100.00
80116;BME280;69423;47.608;19.366;2024-03-02T01:54:24;98290.94;;;7.73;100.00
80116;BME280;69423;47.608;19.366;2024-03-02T01:54:55;98301.00;;;7.78;100.00
80116;BME280;69423;47.608;19.366;2024-03-02T01:55:26;98292.66;;;7.81;100.00
80116;BME280;69423;47.608;19.366;2024-03-02T01:55:59;98292.31;;;7.84;100.00
80116;BME280;69423;47.608;19.366;2024-03-02T01:56:32;98298.63;;;7.83;100.00
80116;BME280;69423;47.608;19.366;2024-03-02T01:57:03;98291.13;;;7.86;100.00
80116;BME280;69423;47.608;19.366;2024-03-02T01:57:34;98291.22;;;7.93;100.00
80116;BME280;69423;47.608;19.366;2024-03-02T01:58:05;98300.19;;;7.92;100.00
80116;BME280;69423;47.608;19.366;2024-03-02T01:58:37;98286.94;;;7.92;100.00
80116;BME280;69423;47.608;19.366;2024-03-02T01:59:09;98289.75;;;7.90;100.00
80116;BME280;69423;47.608;19.366;2024-03-02T01:59:40;98291.38;;;7.91;100.00
80116;BME280;69423;47.608;19.366;2024-03-02T02:00:12;98295.31;;;7.96;100.00
80116;BME280;69423;47.608;19.366;2024-03-02T02:00:43;98292.50;;;7.97;100.00
80116;BME280;69423;47.608;19.366;2024-03-02T02:01:14;98290.03;;;7.96;100.00
80116;BME280;69423;47.608;19.366;2024-03-02T02:01:45;98285.56;;;7.96;100.00
80116;BME280;69423;47.608;19.366;2024-03-02T02:02:16;98285.56;;;7.96;100.00
80116;BME280;69423;47.608;19.366;2024-03-02T02:02:48;98282.69;;;7.98;100.00
80116;BME280;69423;47.608;19.366;2024-03-02T02:03:19;98291.31;;;8.00;100.00
80116;BME280;69423;47.608;19.366;2024-03-02T02:03:50;98286.00;;;8.00;100.00
80116;BME280;69423;47.608;19.366;2024-03-02T02:04:21;98292.78;;;8.02;100.00
80116;BME280;69423;47.608;19.366;2024-03-02T02:04:57;98286.84;;;8.00;100.00
80116;BME280;69423;47.608;19.366;2024-03-02T02:05:28;98285.66;;;8.03;100.00
80116;BME280;69423;47.608;19.366;2024-03-02T02:05:59;98294.25;;;8.05;100.00
80116;BME280;69423;47.608;19.366;2024-03-02T02:06:31;98292.78;;;8.02;100.00
80116;BME280;69423;47.608;19.366;2024-03-02T02:07:02;98289.13;;;8.03;100.00
80116;BME280;69423;47.608;19.366;2024-03-02T02:07:33;98290.13;;;8.02;100.00
80116;BME280;69423;47.608;19.366;2024-03-02T02:08:05;98297.47;;;8.00;100.00
80116;BME280;69423;47.608;19.366;2024-03-02T02:08:37;98286.19;;;7.98;100.00
80116;BME280;69423;47.608;19.366;2024-03-02T02:09:08;98291.13;;;8.01;100.00
80116;BME280;69423;47.608;19.366;2024-03-02T02:09:42;98293.31;;;7.98;100.00
80116;BME280;69423;47.608;19.366;2024-03-02T02:10:13;98290.22;;;7.94;100.00
80116;BME280;69423;47.608;19.366;2024-03-02T02:10:44;98293.31;;;7.98;100.00
80116;BME280;69423;47.608;19.366;2024-03-02T02:11:16;98286.84;;;8.00;100.00
80116;BME280;69423;47.608;19.366;2024-03-02T02:11:47;98297.63;;;7.99;100.00
80116;BME280;69423;47.608;19.366;2024-03-02T02:12:18;98306.59;;;7.98;100.00
80116;BME280;69423;47.608;19.366;2024-03-02T02:12:49;98293.31;;;7.98;100.00
80116;BME280;69423;47.608;19.366;2024-03-02T02:13:20;98291.50;;;7.98;100.00
80116;BME280;69423;47.608;19.366;2024-03-02T02:13:51;98299.91;;;8.02;100.00
80116;BME280;69423;47.608;19.366;2024-03-02T02:14:22;98300.28;;;7.99;100.00
80116;BME280;69423;47.608;19.366;2024-03-02T02:14:53;98301.28;;;7.98;100.00
80116;BME280;69423;47.608;19.366;2024-03-02T02:15:28;98300.75;;;8.02;100.00
80116;BME280;69423;47.608;19.366;2024-03-02T02:16:07;98291.59;;;8.05;100.00
80116;BME280;69423;47.608;19.366;2024-03-02T02:16:38;98289.28;;;8.02;100.00
80116;BME280;69423;47.608;19.366;2024-03-02T02:17:09;98290.13;;;8.02;100.00
80116;BME280;69423;47.608;19.366;2024-03-02T02:17:40;98286.47;;;8.03;100.00
80116;BME280;69423;47.608;19.366;2024-03-02T02:18:11;98289.28;;;8.02;100.00
80116;BME280;69423;47.608;19.366;2024-03-02T02:18:42;98293.97;;;8.00;100.00
80116;BME280;69423;47.608;19.366;2024-03-02T02:19:13;98294.59;;;8.02;100.00
80116;BME280;69423;47.608;19.366;2024-03-02T02:19:44;98285.25;;;8.06;100.00
80116;BME280;69423;47.608;19.366;2024-03-02T02:20:15;98287.56;;;8.09;100.00
80116;BME280;69423;47.608;19.366;2024-03-02T02:20:46;98288.56;;;8.08;100.00
80116;BME280;69423;47.608;19.366;2024-03-02T02:21:22;98285.91;;;8.08;99.99
80116;BME280;69423;47.608;19.366;2024-03-02T02:21:53;98284.91;;;8.09;100.00
80116;BME280;69423;47.608;19.366;2024-03-02T02:22:24;98281.22;;;8.10;100.00
80116;BME280;69423;47.608;19.366;2024-03-02T02:23:03;98275.56;;;8.13;99.95
80116;BME280;69423;47.608;19.366;2024-03-02T02:23:35;98284.19;;;8.15;99.83
80116;BME280;69423;47.608;19.366;2024-03-02T02:24:06;98277.50;;;8.19;100.00
80116;BME280;69423;47.608;19.366;2024-03-02T02:24:43;98276.84;;;8.17;99.39
80116;BME280;69423;47.608;19.366;2024-03-02T02:25:14;98285.63;;;8.18;100.00
80116;BME280;69423;47.608;19.366;2024-03-02T02:25:45;98276.38;;;8.14;100.00
80116;BME280;69423;47.608;19.366;2024-03-02T02:26:16;98280.50;;;8.16;100.00
80116;BME280;69423;47.608;19.366;2024-03-02T02:26:47;98281.69;;;8.14;100.00
80116;BME280;69423;47.608;19.366;2024-03-02T02:27:18;98281.06;;;8.11;100.00
80116;BME280;69423;47.608;19.366;2024-03-02T02:27:49;98271.47;;;8.10;100.00
80116;BME280;69423;47.608;19.366;2024-03-02T02:28:20;98276.78;;;8.10;100.00
80116;BME280;69423;47.608;19.366;2024-03-02T02:28:51;98280.41;;;8.09;100.00
80116;BME280;69423;47.608;19.366;2024-03-02T02:29:22;98283.25;;;8.08;100.00
80116;BME280;69423;47.608;19.366;2024-03-02T02:29:53;98279.59;;;8.09;100.00
80116;BME280;69423;47.608;19.366;2024-03-02T02:30:29;98279.59;;;8.09;100.00
80116;BME280;69423;47.608;19.366;2024-03-02T02:31:00;98290.47;;;8.14;100.00
80116;BME280;69423;47.608;19.366;2024-03-02T02:31:39;98287.81;;;8.14;100.00
80116;BME280;69423;47.608;19.366;2024-03-02T02:32:10;98289.03;;;8.11;100.00
80116;BME280;69423;47.608;19.366;2024-03-02T02:32:41;98286.19;;;8.13;99.91
80116;BME280;69423;47.608;19.366;2024-03-02T02:33:12;98281.69;;;8.14;99.91
80116;BME280;69423;47.608;19.366;2024-03-02T02:33:43;98286.75;;;8.08;99.92
80116;BME280;69423;47.608;19.366;2024-03-02T02:34:14;98283.88;;;8.10;100.00
80116;BME280;69423;47.608;19.366;2024-03-02T02:34:46;98284.28;;;8.07;100.00
80116;BME280;69423;47.608;19.366;2024-03-02T02:35:17;98292.88;;;8.09;100.00
80116;BME280;69423;47.608;19.366;2024-03-02T02:35:48;98291.41;;;8.06;100.00
80116;BME280;69423;47.608;19.366;2024-03-02T02:36:19;98287.91;;;8.06;100.00
80116;BME280;69423;47.608;19.366;2024-03-02T02:36:51;98295.53;;;8.09;100.00
80116;BME280;69423;47.608;19.366;2024-03-02T02:37:22;98298.81;;;8.11;100.00
80116;BME280;69423;47.608;19.366;2024-03-02T02:37:55;98298.66;;;8.13;100.00
80116;BME280;69423;47.608;19.366;2024-03-02T02:38:27;98301.94;;;8.15;100.00
80116;BME280;69423;47.608;19.366;2024-03-02T02:39:01;98300.28;;;8.14;100.00
80116;BME280;69423;47.608;19.366;2024-03-02T02:39:34;98304.78;;;8.13;100.00
80116;BME280;69423;47.608;19.366;2024-03-02T02:40:05;98301.09;;;8.14;100.00
80116;BME280;69423;47.608;19.366;2024-03-02T02:40:36;98301.09;;;8.14;100.00
80116;BME280;69423;47.608;19.366;2024-03-02T02:41:08;98297.63;;;8.14;100.00
80116;BME280;69423;47.608;19.366;2024-03-02T02:41:39;98302.94;;;8.14;100.00
80116;BME280;69423;47.608;19.366;2024-03-02T02:42:10;98299.28;;;8.15;100.00
80116;BME280;69423;47.608;19.366;2024-03-02T02:42:41;98299.47;;;8.13;100.00
80116;BME280;69423;47.608;19.366;2024-03-02T02:43:12;98302.31;;;8.11;100.00
80116;BME280;69423;47.608;19.366;2024-03-02T02:43:43;98299.66;;;8.11;100.00
80116;BME280;69423;47.608;19.366;2024-03-02T02:44:14;98301.66;;;8.09;100.00
80116;BME280;69423;47.608;19.366;2024-03-02T02:44:46;98300.84;;;8.09;100.00
80116;BME280;69423;47.608;19.366;2024-03-02T02:45:17;98299.00;;;8.09;100.00
80116;BME280;69423;47.608;19.366;2024-03-02T02:45:48;98305.78;;;8.12;100.00
80116;BME280;69423;47.608;19.366;2024-03-02T02:46:19;98296.00;;;8.13;100.00
80116;BME280;69423;47.608;19.366;2024-03-02T02:46:50;98305.78;;;8.12;100.00
80116;BME280;69423;47.608;19.366;2024-03-02T02:47:21;98298.00;;;8.10;100.00
80116;BME280;69423;47.608;19.366;2024-03-02T02:47:52;98296.81;;;8.13;100.00
80116;BME280;69423;47.608;19.366;2024-03-02T02:48:23;98295.16;;;8.12;100.00